createdAt,value
2018-04-25T00:01:11.917Z,8.30
2018-04-25T00:03:38.614Z,10.70
2018-04-25T00:06:06.052Z,8.87
2018-04-25T00:08:32.752Z,11.20
2018-04-25T00:10:59.471Z,10.07
2018-04-25T00:13:26.933Z,10.17
2018-04-25T00:15:54.395Z,17.03
2018-04-25T00:18:21.079Z,7.97
2018-04-25T00:20:47.749Z,9.30
2018-04-25T00:23:14.385Z,9.50
2018-04-25T00:25:41.102Z,9.40
2018-04-25T00:28:07.758Z,9.63
2018-04-25T00:30:34.414Z,9.80
2018-04-25T00:33:01.059Z,8.67
2018-04-25T00:35:27.754Z,10.23
2018-04-25T00:37:54.450Z,9.93
2018-04-25T00:40:21.135Z,9.33
2018-04-25T00:42:47.925Z,8.80
2018-04-25T00:45:14.684Z,10.53
2018-04-25T00:47:41.429Z,10.10
2018-04-25T00:50:08.244Z,9.80
2018-04-25T00:52:34.940Z,10.63
2018-04-25T00:55:02.451Z,12.57
2018-04-25T00:57:29.170Z,11.03
2018-04-25T00:59:55.897Z,9.70
2018-04-25T01:02:23.358Z,10.47
2018-04-25T01:04:50.812Z,12.07
2018-04-25T01:07:18.241Z,12.20
2018-04-25T01:09:44.985Z,9.23
2018-04-25T01:12:11.693Z,10.80
2018-04-25T01:14:38.510Z,10.53
2018-04-25T01:17:06.053Z,19.50
2018-04-25T01:19:32.820Z,12.53
2018-04-25T01:22:00.303Z,10.33
2018-04-25T01:24:27.107Z,10.73
2018-04-25T01:26:53.845Z,9.17
2018-04-25T01:29:23.528Z,10.17
2018-04-25T01:32:02.575Z,9.57
2018-04-25T01:34:34.842Z,10.40
2018-04-25T01:37:07.344Z,11.03
2018-04-25T01:39:39.814Z,12.73
2018-04-25T01:46:03.214Z,15.13
2018-04-25T02:01:51.305Z,12.10
2018-04-25T02:04:18.490Z,13.70
2018-04-25T02:06:44.974Z,10.80
2018-04-25T02:09:11.450Z,12.13
2018-04-25T02:11:37.922Z,12.30
2018-04-25T02:14:04.393Z,11.10
2018-04-25T02:16:31.629Z,12.43
2018-04-25T02:18:58.095Z,10.83
2018-04-25T02:21:25.304Z,11.10
2018-04-25T02:23:51.783Z,11.13
2018-04-25T02:26:18.248Z,11.37
2018-04-25T02:28:44.722Z,10.67
2018-04-25T02:31:11.184Z,18.23
2018-04-25T02:33:37.654Z,11.70
2018-04-25T02:36:04.131Z,11.83
2018-04-25T02:38:30.625Z,12.10
2018-04-25T02:40:57.851Z,12.50
2018-04-25T02:43:24.302Z,12.13
2018-04-25T02:45:50.780Z,15.00
2018-04-25T02:48:17.250Z,11.37
2018-04-25T02:50:43.718Z,11.63
2018-04-25T02:53:10.193Z,14.23
2018-04-25T02:55:36.655Z,11.97
2018-04-25T02:58:03.102Z,16.07
2018-04-25T03:00:29.585Z,14.87
2018-04-25T03:02:56.774Z,12.20
2018-04-25T03:05:23.215Z,15.50
2018-04-25T03:07:49.692Z,13.87
2018-04-25T03:10:16.161Z,11.10
2018-04-25T03:12:42.602Z,11.13
2018-04-25T03:15:09.065Z,13.87
2018-04-25T03:17:35.544Z,12.60
2018-04-25T03:20:02.020Z,13.50
2018-04-25T03:22:28.553Z,12.53
2018-04-25T03:24:55.000Z,11.45
2018-04-25T03:27:21.464Z,12.40
2018-04-25T03:29:47.924Z,13.03
2018-04-25T03:32:14.420Z,13.57
2018-04-25T03:34:40.873Z,17.03
2018-04-25T03:37:07.347Z,17.30
2018-04-25T03:39:33.827Z,16.87
2018-04-25T03:42:00.321Z,14.20
2018-04-25T03:44:26.809Z,15.70
2018-04-25T03:46:53.262Z,11.97
2018-04-25T03:49:19.724Z,17.60
2018-04-25T03:51:46.288Z,14.23
2018-04-25T03:54:12.740Z,13.70
2018-04-25T03:56:39.982Z,16.60
2018-04-25T03:59:07.236Z,14.17
2018-04-25T04:01:33.681Z,14.47
2018-04-25T04:04:00.878Z,17.67
2018-04-25T04:06:27.402Z,13.67
2018-04-25T04:08:53.866Z,13.70
2018-04-25T04:11:20.401Z,13.30
2018-04-25T04:13:46.892Z,13.95
2018-04-25T04:16:14.062Z,15.20
2018-04-25T04:18:40.533Z,12.30
2018-04-25T04:21:07.050Z,12.63
2018-04-25T04:23:33.499Z,11.27
2018-04-25T04:25:59.995Z,11.37
2018-04-25T04:28:27.252Z,16.57
2018-04-25T04:30:54.489Z,12.30
2018-04-25T04:33:21.000Z,15.30
2018-04-25T04:35:47.468Z,14.10
2018-04-25T04:38:13.931Z,10.80
2018-04-25T04:40:41.116Z,10.83
2018-04-25T04:43:07.599Z,19.80
2018-04-25T04:45:34.089Z,12.13
2018-04-25T04:48:00.557Z,16.97
2018-04-25T04:50:27.032Z,11.43
2018-04-25T04:52:54.259Z,10.73
2018-04-25T04:55:20.748Z,13.27
2018-04-25T04:57:47.268Z,17.33
2018-04-25T05:00:14.465Z,13.73
2018-04-25T05:02:40.965Z,11.60
2018-04-25T05:05:08.198Z,13.03
2018-04-25T05:07:34.645Z,9.80
2018-04-25T05:10:01.112Z,12.30
2018-04-25T05:12:27.621Z,14.27
2018-04-25T05:14:54.099Z,12.57
2018-04-25T05:17:21.419Z,13.07
2018-04-25T05:19:47.912Z,12.00
2018-04-25T05:22:14.353Z,10.17
2018-04-25T05:24:40.888Z,11.20
2018-04-25T05:27:07.300Z,12.70
2018-04-25T05:29:33.781Z,13.60
2018-04-25T05:32:00.248Z,14.17
2018-04-25T05:34:27.535Z,11.43
2018-04-25T05:36:54.000Z,8.40
2018-04-25T05:39:20.502Z,16.07
2018-04-25T05:41:47.711Z,12.90
2018-04-25T05:44:14.217Z,8.97
2018-04-25T05:46:40.667Z,10.13
2018-04-25T05:49:07.215Z,9.43
2018-04-25T05:51:33.704Z,10.53
2018-04-25T05:54:00.898Z,11.67
2018-04-25T05:56:27.413Z,9.17
2018-04-25T05:58:53.861Z,8.20
2018-04-25T06:01:20.334Z,13.63
2018-04-25T06:03:46.839Z,11.67
2018-04-25T06:06:13.293Z,8.63
2018-04-25T06:08:39.767Z,9.40
2018-04-25T06:11:06.252Z,11.00
2018-04-25T06:13:32.693Z,9.13
2018-04-25T06:15:59.193Z,9.43
2018-04-25T06:18:26.428Z,12.03
2018-04-25T06:20:52.959Z,9.30
2018-04-25T06:23:19.411Z,11.93
2018-04-25T06:25:45.895Z,8.47
2018-04-25T06:28:12.366Z,7.90
2018-04-25T06:30:38.822Z,8.70
2018-04-25T06:33:05.300Z,7.40
2018-04-25T06:35:31.790Z,10.83
2018-04-25T06:37:58.250Z,12.13
2018-04-25T06:40:24.721Z,7.83
2018-04-25T06:42:51.208Z,7.70
2018-04-25T06:45:17.647Z,10.20
2018-04-25T06:47:44.139Z,10.10
2018-04-25T06:50:10.682Z,11.90
2018-04-25T06:52:37.131Z,8.70
2018-04-25T06:55:03.607Z,11.23
2018-04-25T06:57:30.099Z,7.33
2018-04-25T06:59:56.548Z,10.20
2018-04-25T07:02:23.825Z,8.40
2018-04-25T07:04:50.249Z,10.07
2018-04-25T07:07:16.682Z,7.70
2018-04-25T07:09:43.168Z,8.67
2018-04-25T07:12:10.385Z,8.43
2018-04-25T07:14:36.993Z,7.60
2018-04-25T07:17:03.529Z,9.23
2018-04-25T07:19:30.029Z,8.40
2018-04-25T07:21:56.579Z,8.57
2018-04-25T07:24:23.068Z,9.33
2018-04-25T07:26:49.526Z,8.17
2018-04-25T07:29:16.024Z,9.43
2018-04-25T07:31:42.509Z,11.50
2018-04-25T07:34:08.977Z,12.93
2018-04-25T07:36:36.194Z,11.67
2018-04-25T07:39:03.312Z,9.53
2018-04-25T07:41:29.748Z,9.10
2018-04-25T07:43:56.205Z,13.17
2018-04-25T07:46:22.691Z,9.20
2018-04-25T07:48:49.916Z,8.40
2018-04-25T07:51:16.365Z,8.50
2018-04-25T07:53:43.579Z,9.50
2018-04-25T07:56:10.040Z,11.53
2018-04-25T07:58:36.493Z,14.77
2018-04-25T08:01:03.051Z,10.40
2018-04-25T08:03:29.544Z,9.87
2018-04-25T08:05:56.038Z,14.17
2018-04-25T08:08:23.273Z,12.10
2018-04-25T08:10:49.738Z,11.57
2018-04-25T08:13:29.167Z,14.27
2018-04-25T08:16:07.799Z,13.07
2018-04-25T08:18:47.217Z,13.53
2018-04-25T08:21:24.761Z,12.50
2018-04-25T08:23:51.393Z,12.47
2018-04-25T08:26:17.849Z,13.40
2018-04-25T08:28:44.337Z,11.37
2018-04-25T08:31:10.830Z,13.23
2018-04-25T08:33:37.353Z,9.57
2018-04-25T08:36:03.894Z,11.40
2018-04-25T08:38:30.364Z,14.13
2018-04-25T08:40:56.793Z,10.70
2018-04-25T08:43:23.289Z,12.83
2018-04-25T08:45:50.513Z,13.47
2018-04-25T08:48:16.973Z,13.70
2018-04-25T08:50:44.169Z,10.00
2018-04-25T08:53:10.711Z,12.07
2018-04-25T08:55:37.219Z,10.97
2018-04-25T08:58:04.453Z,10.13
2018-04-25T09:00:30.952Z,9.63
2018-04-25T09:02:57.533Z,12.30
2018-04-25T09:05:24.065Z,10.60
2018-04-25T09:07:50.540Z,10.90
2018-04-25T09:10:17.716Z,10.60
2018-04-25T09:12:44.160Z,13.00
2018-04-25T09:15:10.630Z,13.87
2018-04-25T09:17:37.145Z,10.13
2018-04-25T09:20:03.628Z,12.70
2018-04-25T09:22:30.877Z,10.57
2018-04-25T09:24:57.447Z,14.63
2018-04-25T09:27:23.970Z,12.80
2018-04-25T09:29:51.220Z,11.73
2018-04-25T09:32:18.414Z,12.87
2018-04-25T09:34:44.866Z,9.77
2018-04-25T09:37:11.355Z,9.90
2018-04-25T09:39:38.564Z,9.60
2018-04-25T09:42:05.090Z,11.50
2018-04-25T09:44:31.585Z,10.17
2018-04-25T09:46:58.793Z,10.93
2018-04-25T09:49:25.301Z,10.80
2018-04-25T09:51:51.924Z,10.50
2018-04-25T09:54:18.348Z,11.53
2018-04-25T09:56:44.799Z,11.00
2018-04-25T09:59:12.031Z,9.73
2018-04-25T10:01:38.476Z,11.00
2018-04-25T10:04:04.982Z,10.80
2018-04-25T10:06:32.195Z,12.17
2018-04-25T10:08:59.390Z,10.53
2018-04-25T10:11:25.895Z,13.60
2018-04-25T10:13:53.157Z,11.77
2018-04-25T10:16:19.631Z,9.60
2018-04-25T10:18:46.081Z,10.57
2018-04-25T10:21:12.767Z,12.97
2018-04-25T10:23:40.125Z,15.03
2018-04-25T10:26:07.325Z,10.00
2018-04-25T10:28:34.349Z,9.00
2018-04-25T10:31:00.898Z,9.40
2018-04-25T10:33:27.774Z,10.07
2018-04-25T10:35:54.255Z,10.63
2018-04-25T10:38:21.475Z,11.23
2018-04-25T10:40:48.682Z,10.30
2018-04-25T10:43:15.149Z,9.73
2018-04-25T10:45:41.630Z,9.80
2018-04-25T10:48:08.832Z,9.90
2018-04-25T10:50:42.187Z,13.00
2018-04-25T10:53:08.703Z,8.57
2018-04-25T10:55:35.175Z,9.80
2018-04-25T10:58:02.395Z,11.03
2018-04-25T11:00:28.869Z,11.97
2018-04-25T11:02:56.068Z,9.50
2018-04-25T11:05:22.660Z,11.10
2018-04-25T11:07:49.894Z,11.63
2018-04-25T11:10:16.376Z,10.10
2018-04-25T11:12:42.910Z,8.90
2018-04-25T11:15:09.433Z,7.67
2018-04-25T11:17:36.634Z,8.27
2018-04-25T11:20:03.094Z,8.57
2018-04-25T11:22:29.564Z,8.90
2018-04-25T11:24:56.789Z,8.47
2018-04-25T11:27:23.296Z,9.00
2018-04-25T11:29:49.801Z,9.20
2018-04-25T11:32:16.275Z,8.30
2018-04-25T11:34:42.764Z,9.30
2018-04-25T11:37:10.074Z,7.27
2018-04-25T11:39:36.543Z,7.00
2018-04-25T11:42:03.071Z,7.70
2018-04-25T11:44:29.577Z,7.27
2018-04-25T11:46:56.011Z,11.10
2018-04-25T11:49:22.521Z,8.30
2018-04-25T11:51:49.753Z,7.63
2018-04-25T11:54:16.193Z,8.17
2018-04-25T11:56:42.748Z,7.80
2018-04-25T11:59:10.001Z,7.70
2018-04-25T12:01:37.211Z,7.70
2018-04-25T12:04:03.760Z,10.33
2018-04-25T12:06:30.282Z,9.40
2018-04-25T12:08:56.746Z,9.43
2018-04-25T12:11:23.266Z,11.83
2018-04-25T12:13:49.814Z,6.77
2018-04-25T12:16:16.330Z,7.27
2018-04-25T12:18:42.822Z,7.10
2018-04-25T12:21:09.275Z,7.00
2018-04-25T12:23:36.514Z,8.47
2018-04-25T12:26:02.974Z,7.90
2018-04-25T12:28:30.199Z,10.30
2018-04-25T12:30:56.718Z,6.67
2018-04-25T12:33:23.220Z,7.80
2018-04-25T12:35:49.742Z,6.43
2018-04-25T12:38:16.221Z,6.73
2018-04-25T12:40:42.716Z,8.90
2018-04-25T12:43:09.923Z,9.13
2018-04-25T12:45:36.403Z,13.07
2018-04-25T12:48:03.674Z,7.13
2018-04-25T12:50:30.886Z,6.80
2018-04-25T12:52:57.363Z,11.80
2018-04-25T12:55:24.584Z,9.90
2018-04-25T12:57:51.093Z,9.60
2018-04-25T13:00:17.615Z,10.23
2018-04-25T13:02:44.144Z,6.83
2018-04-25T13:05:11.342Z,9.10
2018-04-25T13:07:37.822Z,6.53
2018-04-25T13:10:05.092Z,7.70
2018-04-25T13:12:32.297Z,10.93
2018-04-25T13:14:58.872Z,7.17
2018-04-25T13:17:26.151Z,7.20
2018-04-25T13:19:53.370Z,11.13
2018-04-25T13:22:19.827Z,10.93
2018-04-25T13:24:47.130Z,8.30
2018-04-25T13:27:13.620Z,8.43
2018-04-25T13:29:40.824Z,9.23
2018-04-25T13:32:07.337Z,9.27
2018-04-25T13:34:33.817Z,9.60
2018-04-25T13:37:00.292Z,19.23
2018-04-25T13:39:27.568Z,11.13
2018-04-25T13:41:54.034Z,9.93
2018-04-25T13:44:20.490Z,11.93
2018-04-25T13:46:47.038Z,9.40
2018-04-25T13:49:13.473Z,7.83
2018-04-25T13:51:39.934Z,9.53
2018-04-25T13:54:06.425Z,8.13
2018-04-25T13:56:32.897Z,8.97
2018-04-25T13:58:59.388Z,8.87
2018-04-25T14:01:25.850Z,8.23
2018-04-25T14:03:53.071Z,14.10
2018-04-25T14:06:19.570Z,6.90
2018-04-25T14:08:46.119Z,6.47
2018-04-25T14:11:12.657Z,7.17
2018-04-25T14:13:39.103Z,8.00
2018-04-25T14:16:06.392Z,7.93
2018-04-25T14:18:32.845Z,7.30
2018-04-25T14:20:59.319Z,9.13
2018-04-25T14:23:25.812Z,9.53
2018-04-25T14:25:52.273Z,10.70
2018-04-25T14:28:18.735Z,9.90
2018-04-25T14:30:45.212Z,8.40
2018-04-25T14:33:11.677Z,7.83
2018-04-25T14:35:38.261Z,8.67
2018-04-25T14:38:05.541Z,8.10
2018-04-25T14:40:31.995Z,9.23
2018-04-25T14:42:58.477Z,9.47
2018-04-25T14:45:24.976Z,7.60
2018-04-25T14:47:51.461Z,7.87
2018-04-25T14:50:17.939Z,12.97
2018-04-25T14:52:44.412Z,8.60
2018-04-25T14:55:10.875Z,7.67
2018-04-25T14:57:37.326Z,7.30
2018-04-25T15:00:04.565Z,6.50
2018-04-25T15:02:31.062Z,10.63
2018-04-25T15:04:57.533Z,6.93
2018-04-25T15:07:24.035Z,11.87
2018-04-25T15:09:50.524Z,8.60
2018-04-25T15:12:17.101Z,9.23
2018-04-25T15:14:43.563Z,6.50
2018-04-25T15:17:10.037Z,7.00
2018-04-25T15:19:36.494Z,7.57
2018-04-25T15:22:03.031Z,6.60
2018-04-25T15:24:30.261Z,6.10
2018-04-25T15:26:56.766Z,7.70
2018-04-25T15:29:23.255Z,10.47
2018-04-25T15:31:49.704Z,8.17
2018-04-25T15:34:16.921Z,6.90
2018-04-25T15:36:43.412Z,14.20
2018-04-25T15:39:10.690Z,6.33
2018-04-25T15:41:37.196Z,7.87
2018-04-25T15:44:04.403Z,13.90
2018-04-25T15:46:30.877Z,9.13
2018-04-25T15:48:57.404Z,10.03
2018-04-25T15:51:23.889Z,8.27
2018-04-25T15:53:57.352Z,8.13
2018-04-25T15:56:23.828Z,12.57
2018-04-25T15:58:50.281Z,10.07
2018-04-25T16:01:16.703Z,10.47
2018-04-25T16:03:43.208Z,10.70
2018-04-25T16:06:09.683Z,10.80
2018-04-25T16:08:36.157Z,9.50
2018-04-25T16:11:02.746Z,10.50
2018-04-25T16:13:29.149Z,9.20
2018-04-25T16:15:56.378Z,11.67
2018-04-25T16:18:22.896Z,9.80
2018-04-25T16:20:49.366Z,9.30
2018-04-25T16:23:15.837Z,9.00
2018-04-25T16:25:42.376Z,8.93
2018-04-25T16:28:09.593Z,13.13
2018-04-25T16:30:36.072Z,11.97
2018-04-25T16:33:03.330Z,12.17
2018-04-25T16:35:30.512Z,13.77
2018-04-25T16:37:56.956Z,11.73
2018-04-25T16:40:23.460Z,10.93
2018-04-25T16:42:50.676Z,10.03
2018-04-25T16:45:17.120Z,15.60
2018-04-25T16:47:43.623Z,14.00
2018-04-25T16:50:10.121Z,12.73
2018-04-25T16:52:36.602Z,15.53
2018-04-25T16:55:03.101Z,11.30
2018-04-25T16:57:29.572Z,10.90
2018-04-25T16:59:56.080Z,8.73
2018-04-25T17:02:23.369Z,11.10
2018-04-25T17:04:49.885Z,11.70
2018-04-25T17:07:17.068Z,12.27
2018-04-25T17:09:43.591Z,10.30
2018-04-25T17:12:10.077Z,12.80
2018-04-25T17:14:37.287Z,18.40
2018-04-25T17:17:04.544Z,17.83
2018-04-25T17:19:31.736Z,18.83
2018-04-25T17:21:58.181Z,13.77
2018-04-25T17:24:24.682Z,11.30
2018-04-25T17:26:51.211Z,13.77
2018-04-25T17:29:18.531Z,9.97
2018-04-25T17:31:45.046Z,16.03
2018-04-25T17:34:11.533Z,16.47
2018-04-25T17:36:38.754Z,9.27
2018-04-25T17:39:05.338Z,14.77
2018-04-25T17:41:32.611Z,15.47
2018-04-25T17:43:59.074Z,16.80
2018-04-25T17:46:25.582Z,18.20
2018-04-25T17:48:52.032Z,14.43
2018-04-25T17:51:18.553Z,14.07
2018-04-25T17:53:45.822Z,11.87
2018-04-25T17:56:12.330Z,12.47
2018-04-25T17:58:39.580Z,13.60
2018-04-25T18:01:06.081Z,13.83
2018-04-25T18:03:32.563Z,15.70
2018-04-25T18:05:59.822Z,19.03
2018-04-25T18:08:27.042Z,14.33
2018-04-25T18:10:53.540Z,12.60
2018-04-25T18:13:20.034Z,11.53
2018-04-25T18:15:46.495Z,12.00
2018-04-25T18:18:13.690Z,18.77
2018-04-25T18:20:40.136Z,16.37
2018-04-25T18:23:06.652Z,13.23
2018-04-25T18:25:33.232Z,12.37
2018-04-25T18:27:59.730Z,13.50
2018-04-25T18:30:26.268Z,12.30
2018-04-25T18:32:52.756Z,15.63
2018-04-25T18:35:20.022Z,12.43
2018-04-25T18:37:47.287Z,11.97
2018-04-25T18:40:15.542Z,14.33
2018-04-25T18:42:43.931Z,14.13
2018-04-25T18:45:10.415Z,16.00
2018-04-25T18:47:36.917Z,11.77
2018-04-25T18:50:03.399Z,15.70
2018-04-25T18:52:29.885Z,17.83
2018-04-25T18:54:56.376Z,15.97
2018-04-25T18:57:23.289Z,17.10
2018-04-25T18:59:49.826Z,12.53
2018-04-25T19:02:16.354Z,14.77
2018-04-25T19:04:43.796Z,14.83
2018-04-25T19:07:10.257Z,14.23
2018-04-25T19:09:36.737Z,19.33
2018-04-25T19:12:03.255Z,23.13
2018-04-25T19:14:30.546Z,18.07
2018-04-25T19:16:57.072Z,13.30
2018-04-25T19:19:23.550Z,19.53
2018-04-25T19:21:50.025Z,17.40
2018-04-25T19:24:17.330Z,17.53
2018-04-25T19:26:43.883Z,17.10
2018-04-25T19:29:10.419Z,16.43
2018-04-25T19:31:36.964Z,15.63
2018-04-25T19:34:04.200Z,16.40
2018-04-25T19:36:30.751Z,18.70
2018-04-25T19:38:57.304Z,14.30
2018-04-25T19:41:23.912Z,18.00
2018-04-25T19:43:50.466Z,15.97
2018-04-25T19:46:16.929Z,13.00
2018-04-25T19:48:43.421Z,15.93
2018-04-25T19:51:09.968Z,14.73
2018-04-25T19:53:37.451Z,19.60
2018-04-25T19:56:03.909Z,16.93
2018-04-25T19:58:30.433Z,15.00
2018-04-25T20:00:56.953Z,18.70
2018-04-25T20:03:23.463Z,22.53
2018-04-25T20:05:50.274Z,19.67
2018-04-25T20:08:16.804Z,14.43
2018-04-25T20:10:43.440Z,14.93
2018-04-25T20:13:10.017Z,15.03
2018-04-25T20:15:37.302Z,14.57
2018-04-25T20:18:03.809Z,14.20
2018-04-25T20:20:30.320Z,12.93
2018-04-25T20:22:56.819Z,17.10
2018-04-25T20:25:23.280Z,14.50
2018-04-25T20:27:49.844Z,21.40
2018-04-25T20:30:16.317Z,16.40
2018-04-25T20:32:43.536Z,14.37
2018-04-25T20:35:10.028Z,14.03
2018-04-25T20:37:36.573Z,17.07
2018-04-25T20:40:03.071Z,12.10
2018-04-25T20:42:36.536Z,15.43
2018-04-25T20:45:03.059Z,19.27
2018-04-25T20:47:29.646Z,14.17
2018-04-25T20:49:56.261Z,14.77
2018-04-25T20:52:22.759Z,11.00
2018-04-25T20:54:49.227Z,14.20
2018-04-25T20:57:15.775Z,15.03
2018-04-25T20:59:42.256Z,14.90
2018-04-25T21:02:09.480Z,11.60
2018-04-25T21:04:35.978Z,12.93
2018-04-25T21:07:02.534Z,11.63
2018-04-25T21:09:29.012Z,15.70
2018-04-25T21:11:55.550Z,11.10
2018-04-25T21:14:22.004Z,13.90
2018-04-25T21:16:48.490Z,12.00
2018-04-25T21:19:14.990Z,14.37
2018-04-25T21:21:42.169Z,12.67
2018-04-25T21:24:08.626Z,12.43
2018-04-25T21:26:35.133Z,10.73
2018-04-25T21:29:01.604Z,14.50
2018-04-25T21:31:28.145Z,12.50
2018-04-25T21:33:54.652Z,12.70
2018-04-25T21:36:21.159Z,11.60
2018-04-25T21:38:48.383Z,11.40
2018-04-25T21:41:14.879Z,17.63
2018-04-25T21:43:42.085Z,15.73
2018-04-25T21:46:09.271Z,11.70
2018-04-25T21:48:36.577Z,22.23
2018-04-25T21:51:03.050Z,14.80
2018-04-25T21:53:29.513Z,12.63
2018-04-25T21:55:56.747Z,17.57
2018-04-25T21:58:23.259Z,11.67
2018-04-25T22:00:49.721Z,12.90
2018-04-25T22:03:16.209Z,18.43
2018-04-25T22:05:42.712Z,14.50
2018-04-25T22:08:09.207Z,15.13
2018-04-25T22:10:35.749Z,15.20
2018-04-25T22:13:02.301Z,17.53
2018-04-25T22:15:28.804Z,19.47
2018-04-25T22:17:55.312Z,20.23
2018-04-25T22:20:22.600Z,14.07
2018-04-25T22:22:49.090Z,13.83
2018-04-25T22:25:15.580Z,15.73
2018-04-25T22:27:42.064Z,18.00
2018-04-25T22:30:08.544Z,15.87
2018-04-25T22:32:35.060Z,16.43
2018-04-25T22:35:02.315Z,12.20
2018-04-25T22:37:28.755Z,22.13
2018-04-25T22:39:55.237Z,15.60
2018-04-25T22:42:21.721Z,14.83
2018-04-25T22:44:48.195Z,11.70
2018-04-25T22:47:14.673Z,14.90
2018-04-25T22:49:41.206Z,14.10
2018-04-25T22:52:08.337Z,12.87
2018-04-25T22:54:34.864Z,15.30
2018-04-25T22:57:01.367Z,16.30
2018-04-25T22:59:27.828Z,15.30
2018-04-25T23:01:55.069Z,14.63
2018-04-25T23:04:21.538Z,12.13
2018-04-25T23:06:48.003Z,13.73
2018-04-25T23:09:14.529Z,16.03
2018-04-25T23:11:41.014Z,14.43
2018-04-25T23:14:07.491Z,19.23
2018-04-25T23:16:33.984Z,14.17
2018-04-25T23:19:00.478Z,14.53
2018-04-25T23:21:26.977Z,17.90
2018-04-25T23:23:53.454Z,18.20
2018-04-25T23:26:19.927Z,18.03
2018-04-25T23:28:46.385Z,15.83
2018-04-25T23:31:12.852Z,21.00
2018-04-25T23:33:39.340Z,12.53
2018-04-25T23:36:05.823Z,16.30
2018-04-25T23:38:33.090Z,17.27
2018-04-25T23:41:00.350Z,14.80
2018-04-25T23:43:26.814Z,13.50
2018-04-25T23:45:53.297Z,11.80
2018-04-25T23:48:20.514Z,13.37
2018-04-25T23:50:46.977Z,14.93
2018-04-25T23:53:13.546Z,17.60
2018-04-25T23:55:40.726Z,13.53
2018-04-25T23:58:07.187Z,15.30
